Time;durP1;ratioP1;P1;durP2;ratioP2;P2;SDS_P1;SDS_P2;PMS_P1;PMS_P2;Temp;Humidity;BMP_temperature;BMP_pressure;BME280_temperature;BME280_humidity;BME280_pressure;Samples;Min_cycle;Max_cycle;Signal;HPM_P1;HPM_P2
2022/09/20 00:01:10;;;;;;;2.20;1.80;;;8.80;99.90;;;;;;5020400;28;20420;-79
2022/09/20 00:03:37;;;;;;;1.70;1.60;;;8.70;99.90;;;;;;5023322;28;20210;-79
2022/09/20 00:06:05;;;;;;;2.10;1.33;;;8.60;99.90;;;;;;5008404;28;20415;-79
2022/09/20 00:08:31;;;;;;;1.50;1.40;;;8.70;99.90;;;;;;5022984;28;20408;-79
2022/09/20 00:11:01;;;;;;;3.43;1.70;;;8.70;99.90;;;;;;5019727;28;20431;-79
2022/09/20 00:13:28;;;;;;;1.40;1.30;;;8.60;99.90;;;;;;5019116;28;20431;-79
2022/09/20 00:15:54;;;;;;;1.50;1.40;;;8.70;99.90;;;;;;5019427;28;20411;-79
2022/09/20 00:18:19;;;;;;;3.50;1.80;;;8.60;99.90;;;;;;5001799;28;20419;-79
2022/09/20 00:20:49;;;;;;;1.67;1.43;;;8.60;99.90;;;;;;5019213;28;20208;-79
2022/09/20 00:23:16;;;;;;;2.87;1.63;;;8.60;99.90;;;;;;5018896;28;20208;-79
2022/09/20 00:25:42;;;;;;;1.63;1.53;;;8.60;99.90;;;;;;5018485;28;20418;-79
2022/09/20 00:28:12;;;;;;;3.30;1.63;;;8.50;99.90;;;;;;5019569;28;20765;-79
2022/09/20 00:30:38;;;;;;;1.73;1.63;;;8.60;99.90;;;;;;5017660;28;20448;-78
2022/09/20 00:33:04;;;;;;;1.93;1.73;;;8.50;99.90;;;;;;5017943;28;20428;-78
2022/09/20 00:35:30;;;;;;;5.97;1.53;;;8.50;99.90;;;;;;5017825;28;20796;-78
2022/09/20 00:37:56;;;;;;;1.60;1.50;;;8.50;99.90;;;;;;5017670;28;20401;-79
2022/09/20 00:40:23;;;;;;;3.00;1.90;;;8.50;99.90;;;;;;5017592;28;20474;-78
2022/09/20 00:42:49;;;;;;;1.50;1.40;;;8.50;99.90;;;;;;5001158;28;20228;-79
2022/09/20 00:45:23;;;;;;;2.73;1.20;;;8.50;99.90;;;;;;5017467;28;20968;-78
2022/09/20 00:48:08;;;;;;;4.10;1.70;;;8.50;99.90;;;;;;5016923;28;20482;-78
2022/09/20 00:50:51;;;;;;;2.00;1.80;;;8.50;99.90;;;;;;5016447;28;20415;-78
2022/09/20 00:53:23;;;;;;;3.43;1.70;;;8.40;99.90;;;;;;5016048;28;20443;-78
2022/09/20 00:55:53;;;;;;;1.23;1.00;;;8.40;99.90;;;;;;5014750;28;20416;-78
2022/09/20 00:58:20;;;;;;;1.80;1.70;;;8.40;99.90;;;;;;5014807;28;20412;-79
2022/09/20 01:00:48;;;;;;;1.93;1.77;;;8.40;99.90;;;;;;5014819;28;20539;-78
2022/09/20 01:03:16;;;;;;;1.97;1.50;;;8.40;99.90;;;;;;5014247;28;20459;-78
2022/09/20 01:05:44;;;;;;;6.60;1.50;;;8.30;99.90;;;;;;4996752;28;20429;-78
2022/09/20 01:08:11;;;;;;;1.30;1.13;;;8.30;99.90;;;;;;5013996;28;20813;-78
2022/09/20 01:10:37;;;;;;;4.40;1.50;;;8.30;99.90;;;;;;5013765;28;20451;-78
2022/09/20 01:13:04;;;;;;;3.47;1.63;;;8.30;99.90;;;;;;5013403;28;20442;-78
2022/09/20 01:15:31;;;;;;;3.70;1.47;;;8.20;99.90;;;;;;5013397;28;20404;-78
2022/09/20 01:17:59;;;;;;;2.10;1.37;;;8.30;99.90;;;;;;5013468;28;20477;-78
2022/09/20 01:20:29;;;;;;;2.27;1.50;;;8.30;99.90;;;;;;5016578;28;20537;-79
2022/09/20 01:23:13;;;;;;;2.20;1.20;;;8.20;99.90;;;;;;5016357;28;20431;-78
2022/09/20 01:26:04;;;;;;;3.27;1.90;;;8.30;99.90;;;;;;5015806;28;20412;-78
2022/09/20 01:28:30;;;;;;;2.20;1.30;;;8.20;99.90;;;;;;5015889;28;20783;-78
2022/09/20 01:31:03;;;;;;;2.53;1.40;;;8.30;99.90;;;;;;5015822;28;20419;-78
2022/09/20 01:33:52;;;;;;;2.90;1.40;;;8.30;99.90;;;;;;5015484;28;20860;-78
2022/09/20 01:36:25;;;;;;;1.13;1.03;;;8.20;99.90;;;;;;5015878;28;20407;-78
2022/09/20 01:39:00;;;;;;;1.20;1.10;;;8.30;99.90;;;;;;5016228;28;20407;-78
2022/09/20 01:41:52;;;;;;;4.10;2.30;;;8.20;99.90;;;;;;5016633;28;20398;-78
2022/09/20 01:44:30;;;;;;;2.87;1.73;;;8.30;99.90;;;;;;5015887;28;20473;-78
2022/09/20 01:47:04;;;;;;;1.50;1.10;;;8.30;99.90;;;;;;5015596;28;20411;-78
2022/09/20 01:50:05;;;;;;;3.10;1.43;;;8.30;99.90;;;;;;5015947;28;20458;-78
2022/09/20 01:52:39;;;;;;;1.47;1.37;;;8.20;99.90;;;;;;5004156;28;20439;-78
2022/09/20 01:55:10;;;;;;;3.73;1.73;;;8.30;99.90;;;;;;5016513;28;20427;-78
2022/09/20 01:58:03;;;;;;;1.50;1.40;;;8.30;99.90;;;;;;5016508;28;20906;-78
2022/09/20 02:00:42;;;;;;;1.50;1.20;;;8.30;99.90;;;;;;5016585;28;20451;-78
2022/09/20 02:03:17;;;;;;;3.90;1.40;;;8.30;99.90;;;;;;5018456;28;20439;-78
2022/09/20 02:05:55;;;;;;;1.57;1.27;;;8.20;99.90;;;;;;5018293;28;20409;-78
2022/09/20 02:08:36;;;;;;;2.67;1.10;;;8.20;99.90;;;;;;5018048;28;20405;-78
2022/09/20 02:11:15;;;;;;;1.37;1.17;;;8.20;99.90;;;;;;5019618;28;20749;-77
2022/09/20 02:14:04;;;;;;;1.57;1.30;;;8.30;99.90;;;;;;5020884;28;20427;-77
2022/09/20 02:16:29;;;;;;;1.40;1.30;;;8.30;99.90;;;;;;5020387;28;20407;-77
2022/09/20 02:19:19;;;;;;;3.40;1.40;;;8.30;99.90;;;;;;5019419;28;20949;-77
2022/09/20 02:22:10;;;;;;;1.50;1.27;;;8.30;99.90;;;;;;5018005;28;20188;-78
2022/09/20 02:24:49;;;;;;;1.30;1.17;;;8.20;99.90;;;;;;5015843;28;20488;-78
2022/09/20 02:27:33;;;;;;;2.23;1.40;;;8.30;99.90;;;;;;5017192;28;20744;-77
2022/09/20 02:30:11;;;;;;;2.57;1.60;;;8.30;99.90;;;;;;5017863;28;20406;-77
2022/09/20 02:32:39;;;;;;;2.93;1.60;;;8.30;99.90;;;;;;5016627;28;20427;-77
2022/09/20 02:35:32;;;;;;;1.83;1.40;;;8.40;99.90;;;;;;5015890;28;20416;-78
2022/09/20 02:38:27;;;;;;;2.57;1.50;;;8.40;99.90;;;;;;5013736;28;20408;-78
2022/09/20 02:41:20;;;;;;;2.13;1.13;;;8.40;99.90;;;;;;5010870;28;20463;-77
2022/09/20 02:44:19;;;;;;;3.90;1.23;;;8.40;99.90;;;;;;5015015;28;20399;-78
2022/09/20 02:47:03;;;;;;;1.23;1.13;;;8.50;99.90;;;;;;5015551;28;20442;-78
2022/09/20 02:49:57;;;;;;;1.53;1.43;;;8.50;99.90;;;;;;5015673;28;20931;-78
2022/09/20 02:53:01;;;;;;;1.77;1.33;;;8.60;99.90;;;;;;4997576;28;20446;-78
2022/09/20 02:55:50;;;;;;;2.60;1.00;;;8.60;99.90;;;;;;5018911;28;20756;-79
2022/09/20 02:58:37;;;;;;;3.10;1.13;;;8.60;99.90;;;;;;5019410;28;20400;-78
2022/09/20 03:01:23;;;;;;;2.40;1.60;;;8.50;99.90;;;;;;5018977;28;20602;-78
2022/09/20 03:03:52;;;;;;;1.30;1.20;;;8.50;99.90;;;;;;5019528;28;20503;-78
2022/09/20 03:06:37;;;;;;;1.83;1.03;;;8.50;99.90;;;;;;5019674;28;20403;-78
2022/09/20 03:09:43;;;;;;;1.77;1.00;;;8.50;99.90;;;;;;5001825;28;20424;-78
2022/09/20 03:12:24;;;;;;;3.00;1.30;;;8.50;99.90;;;;;;5019295;28;20827;-79
2022/09/20 03:15:04;;;;;;;1.20;1.10;;;8.50;99.90;;;;;;5018494;28;20487;-78
2022/09/20 03:17:59;;;;;;;0.87;0.77;;;8.40;99.90;;;;;;5017891;28;20407;-78
2022/09/20 03:21:10;;;;;;;1.10;1.00;;;8.50;99.90;;;;;;5012321;28;20932;-78
2022/09/20 03:23:41;;;;;;;2.13;1.40;;;8.60;99.90;;;;;;5017915;28;20956;-77
2022/09/20 03:26:13;;;;;;;2.10;1.10;;;8.50;99.90;;;;;;5015407;28;20424;-77
2022/09/20 03:29:14;;;;;;;2.23;1.30;;;8.60;99.90;;;;;;4998611;28;20412;-78
2022/09/20 03:31:57;;;;;;;1.43;1.33;;;8.60;99.90;;;;;;4969447;28;20431;-78
2022/09/20 03:34:33;;;;;;;1.30;1.20;;;8.60;99.90;;;;;;5007555;28;20404;-78
2022/09/20 03:37:13;;;;;;;1.20;1.10;;;8.60;99.90;;;;;;5029057;28;20745;-79
2022/09/20 03:40:01;;;;;;;1.67;1.40;;;8.60;99.90;;;;;;5029189;28;20460;-78
2022/09/20 03:42:30;;;;;;;2.17;1.50;;;8.70;99.90;;;;;;5041346;28;20961;-77
2022/09/20 03:45:25;;;;;;;3.17;1.30;;;8.80;99.90;;;;;;5004834;28;20905;-79
2022/09/20 03:48:12;;;;;;;1.57;1.30;;;8.80;99.90;;;;;;5019812;28;20408;-79
2022/09/20 03:50:37;;;;;;;5.47;1.30;;;8.80;99.90;;;;;;5020907;28;20420;-78
2022/09/20 03:53:45;;;;;;;1.20;1.07;;;8.80;99.90;;;;;;5025239;28;20795;-78
2022/09/20 03:56:29;;;;;;;1.63;1.53;;;8.80;99.90;;;;;;5018636;28;20184;-79
2022/09/20 03:59:23;;;;;;;1.60;1.40;;;8.90;99.90;;;;;;5018622;28;20409;-79
2022/09/20 04:02:08;;;;;;;1.57;1.47;;;8.90;99.90;;;;;;5033315;28;20524;-79
2022/09/20 04:04:44;;;;;;;1.97;1.87;;;8.90;99.90;;;;;;5031521;22;20484;-71
2022/09/20 04:07:31;;;;;;;1.40;1.30;;;8.90;99.90;;;;;;5012677;28;20906;-71
2022/09/20 04:10:23;;;;;;;1.47;1.30;;;8.90;99.90;;;;;;5013314;28;20396;-71
2022/09/20 04:13:04;;;;;;;2.17;1.20;;;9.00;99.90;;;;;;5013440;28;20889;-71
2022/09/20 04:15:57;;;;;;;1.30;1.20;;;9.00;99.90;;;;;;4993659;28;20444;-71
2022/09/20 04:18:26;;;;;;;1.20;1.10;;;9.00;99.90;;;;;;4993978;28;20476;-70
2022/09/20 04:20:57;;;;;;;1.33;1.20;;;9.10;99.90;;;;;;4993732;28;20456;-71
2022/09/20 04:23:55;;;;;;;5.17;1.60;;;9.10;99.90;;;;;;4994066;28;20436;-72
2022/09/20 04:26:33;;;;;;;1.73;1.20;;;9.00;99.90;;;;;;4993686;28;20424;-72
2022/09/20 04:29:28;;;;;;;1.63;1.40;;;9.10;99.90;;;;;;4993150;28;20417;-71
2022/09/20 04:32:14;;;;;;;2.30;1.33;;;9.10;99.90;;;;;;4993565;28;20444;-71
2022/09/20 04:37:38;;;;;;;1.80;1.70;;;9.10;99.90;;;;;;4993561;28;20400;-71
2022/09/20 04:40:16;;;;;;;1.50;1.37;;;9.00;99.90;;;;;;4993320;28;20460;-71
2022/09/20 04:43:03;;;;;;;7.10;1.73;;;9.10;99.90;;;;;;4993299;28;20895;-71
2022/09/20 04:46:00;;;;;;;3.80;2.00;;;9.10;99.90;;;;;;4992955;28;20409;-71
2022/09/20 04:49:02;;;;;;;1.93;1.33;;;9.10;99.90;;;;;;4993062;28;20396;-71
2022/09/20 04:51:41;;;;;;;1.40;1.30;;;9.00;99.90;;;;;;4993650;28;20454;-71
2022/09/20 04:54:06;;;;;;;2.00;1.80;;;9.10;99.90;;;;;;4992772;28;20499;-71
2022/09/20 04:57:08;;;;;;;1.37;1.27;;;9.00;99.90;;;;;;4992779;28;20421;-71
2022/09/20 04:59:34;;;;;;;3.93;1.63;;;9.00;99.90;;;;;;4978878;28;20237;-70
2022/09/20 05:02:20;;;;;;;1.80;1.70;;;9.00;99.90;;;;;;4993174;28;20856;-70
2022/09/20 05:05:19;;;;;;;3.43;1.63;;;9.00;99.90;;;;;;4992219;28;20208;-71
2022/09/20 05:07:56;;;;;;;6.20;2.00;;;9.00;99.90;;;;;;4992296;28;20408;-71
2022/09/20 05:10:42;;;;;;;2.00;1.80;;;9.00;99.90;;;;;;4992196;28;20412;-71
2022/09/20 05:13:10;;;;;;;3.97;1.70;;;9.10;99.90;;;;;;4990785;28;20431;-71
2022/09/20 05:15:57;;;;;;;2.20;1.70;;;9.10;99.90;;;;;;4991729;28;20442;-71
2022/09/20 05:18:46;;;;;;;1.87;1.30;;;9.10;99.90;;;;;;4991880;28;20416;-71
2022/09/20 05:21:23;;;;;;;2.07;1.87;;;9.20;99.90;;;;;;4981735;28;20416;-71
2022/09/20 05:23:48;;;;;;;2.30;1.50;;;9.20;99.90;;;;;;4992121;28;20439;-71
2022/09/20 05:26:34;;;;;;;2.33;1.87;;;9.30;99.90;;;;;;4991608;28;20408;-71
2022/09/20 05:29:43;;;;;;;2.63;1.70;;;9.30;99.90;;;;;;4991709;28;20244;-71
2022/09/20 05:32:33;;;;;;;1.73;1.63;;;9.30;99.90;;;;;;4992503;28;20396;-71
2022/09/20 05:35:38;;;;;;;3.50;1.77;;;9.40;99.90;;;;;;4991463;28;20424;-71
2022/09/20 05:38:12;;;;;;;1.70;1.47;;;9.40;99.90;;;;;;4948081;28;20478;-71
2022/09/20 05:41:06;;;;;;;1.80;1.27;;;9.50;99.90;;;;;;4991438;28;20460;-71
2022/09/20 05:43:54;;;;;;;3.70;1.50;;;9.50;99.90;;;;;;4991649;28;20426;-71
2022/09/20 05:46:51;;;;;;;3.53;2.20;;;9.60;99.90;;;;;;4991275;28;20414;-71
2022/09/20 05:49:33;;;;;;;1.50;1.40;;;9.70;99.90;;;;;;4990986;28;21119;-71
2022/09/20 05:52:28;;;;;;;4.07;1.50;;;9.90;99.90;;;;;;4991509;28;20846;-71
2022/09/20 05:55:12;;;;;;;1.40;1.30;;;10.60;99.90;;;;;;4991573;28;20479;-72
2022/09/20 05:58:20;;;;;;;1.43;1.30;;;11.10;99.90;;;;;;4974177;28;20447;-71
2022/09/20 06:00:56;;;;;;;0.90;0.80;;;11.00;99.90;;;;;;4995090;28;20526;-72
2022/09/20 06:03:46;;;;;;;1.10;1.00;;;11.50;99.90;;;;;;4991531;28;20440;-72
2022/09/20 06:06:46;;;;;;;5.63;1.20;;;11.40;99.90;;;;;;4978456;28;20412;-71
2022/09/20 06:09:26;;;;;;;3.53;1.10;;;11.50;99.90;;;;;;4991485;28;20925;-71
2022/09/20 06:12:04;;;;;;;1.90;1.20;;;11.60;99.90;;;;;;4991583;28;20976;-71
2022/09/20 06:15:00;;;;;;;2.67;1.33;;;11.10;99.90;;;;;;4991504;28;20458;-72
2022/09/20 06:17:58;;;;;;;1.57;1.20;;;11.10;99.90;;;;;;4991368;28;20879;-72
2022/09/20 06:20:57;;;;;;;2.10;1.00;;;10.70;99.90;;;;;;4990877;28;20472;-71
2022/09/20 06:23:23;;;;;;;2.20;1.40;;;10.90;99.90;;;;;;4991266;28;20500;-72
2022/09/20 06:25:56;;;;;;;1.43;1.30;;;10.80;99.90;;;;;;4990918;28;20459;-72
2022/09/20 06:28:31;;;;;;;1.50;1.20;;;10.70;99.90;;;;;;4991305;28;20458;-72
2022/09/20 06:30:57;;;;;;;1.70;1.13;;;10.60;99.90;;;;;;4995115;28;20410;-72
2022/09/20 06:33:25;;;;;;;1.80;1.67;;;10.50;99.90;;;;;;4995208;28;20431;-71
2022/09/20 06:35:57;;;;;;;1.53;1.20;;;10.70;99.90;;;;;;4995114;28;20177;-73
2022/09/20 06:41:35;;;;;;;1.80;1.10;;;10.80;99.90;;;;;;4995202;28;20442;-72
2022/09/20 06:44:03;;;;;;;1.30;1.20;;;10.70;99.90;;;;;;4995237;28;20408;-72
2022/09/20 06:46:31;;;;;;;1.67;1.40;;;10.90;99.90;;;;;;4994734;28;20392;-72
2022/09/20 06:48:57;;;;;;;2.97;1.37;;;10.90;99.90;;;;;;4994827;28;20502;-72
2022/09/20 06:51:25;;;;;;;1.43;1.10;;;10.90;99.90;;;;;;4994935;28;20881;-72
2022/09/20 06:53:53;;;;;;;1.57;1.33;;;11.00;99.90;;;;;;4994731;28;20434;-73
2022/09/20 06:56:22;;;;;;;1.07;0.97;;;11.10;99.90;;;;;;4994536;28;20400;-73
2022/09/20 06:58:47;;;;;;;2.43;1.60;;;10.90;99.90;;;;;;4995285;28;20786;-72
2022/09/20 07:01:14;;;;;;;2.10;1.30;;;11.00;99.90;;;;;;4994609;28;20404;-72
2022/09/20 07:03:40;;;;;;;2.50;1.83;;;10.80;99.90;;;;;;4994415;28;20454;-72
2022/09/20 07:06:07;;;;;;;2.50;1.43;;;11.10;99.90;;;;;;4975722;28;20416;-72
2022/09/20 07:08:32;;;;;;;1.73;1.30;;;11.00;99.90;;;;;;4975292;28;20440;-72
2022/09/20 07:11:05;;;;;;;3.63;1.87;;;10.80;99.90;;;;;;4975052;28;20452;-71
2022/09/20 07:13:31;;;;;;;4.37;1.73;;;11.00;99.90;;;;;;4957504;28;20240;-72
2022/09/20 07:16:04;;;;;;;3.13;1.60;;;10.90;99.90;;;;;;4974673;28;20409;-72
2022/09/20 07:18:32;;;;;;;2.73;1.50;;;11.10;99.90;;;;;;4975113;28;20363;-72
2022/09/20 07:20:58;;;;;;;3.97;1.50;;;11.20;99.90;;;;;;4974775;28;20526;-72
2022/09/20 07:23:25;;;;;;;1.57;1.37;;;11.70;99.90;;;;;;4995520;28;20431;-72
2022/09/20 07:25:52;;;;;;;3.93;1.53;;;12.10;99.90;;;;;;5010971;28;20517;-72
2022/09/20 07:28:19;;;;;;;1.60;1.23;;;12.50;99.90;;;;;;4994225;28;20397;-72
2022/09/20 07:30:48;;;;;;;2.23;1.20;;;13.60;99.90;;;;;;4994101;28;20412;-72
2022/09/20 07:33:20;;;;;;;1.63;1.13;;;13.10;99.90;;;;;;4993967;28;20950;-72
2022/09/20 07:35:46;;;;;;;2.90;1.20;;;12.70;99.90;;;;;;4992609;28;20957;-71
2022/09/20 07:38:12;;;;;;;5.97;2.27;;;12.60;99.90;;;;;;4993988;28;20407;-72
2022/09/20 07:40:38;;;;;;;1.37;1.20;;;13.10;99.90;;;;;;4992580;28;20460;-72
2022/09/20 07:43:03;;;;;;;2.10;1.40;;;14.40;99.90;;;;;;4993574;28;20929;-72
2022/09/20 07:45:30;;;;;;;1.90;1.47;;;13.80;99.90;;;;;;4993557;28;20170;-72
2022/09/20 07:47:57;;;;;;;1.30;1.07;;;13.30;99.90;;;;;;4993937;28;20242;-72
2022/09/20 07:50:23;;;;;;;1.90;1.30;;;14.70;99.90;;;;;;4993750;28;20810;-72
2022/09/20 07:52:49;;;;;;;5.07;1.13;;;15.30;99.90;;;;;;4993841;28;20488;-72
2022/09/20 07:55:14;;;;;;;2.07;0.80;;;14.50;99.90;;;;;;4993640;28;20428;-72
2022/09/20 07:57:40;;;;;;;3.50;0.97;;;14.70;99.90;;;;;;4993521;28;20181;-72
2022/09/20 08:00:08;;;;;;;1.67;1.00;;;15.00;99.90;;;;;;4993580;28;20597;-72
2022/09/20 08:02:33;;;;;;;2.23;1.07;;;14.50;99.90;;;;;;4993824;28;20192;-73
2022/09/20 08:05:00;;;;;;;1.20;1.10;;;15.20;99.90;;;;;;4975882;28;20487;-72
2022/09/20 08:07:25;;;;;;;1.50;1.40;;;15.80;99.90;;;;;;4993662;28;20573;-72
2022/09/20 08:09:51;;;;;;;2.63;1.60;;;16.90;99.90;;;;;;4993623;28;20409;-72
2022/09/20 08:12:18;;;;;;;1.60;1.13;;;14.60;99.90;;;;;;4993599;28;20185;-72
2022/09/20 08:14:44;;;;;;;1.37;1.13;;;15.20;99.90;;;;;;4975629;28;20195;-72
2022/09/20 08:17:10;;;;;;;2.60;1.30;;;15.90;99.90;;;;;;4993103;28;20411;-72
2022/09/20 08:19:38;;;;;;;1.90;1.10;;;15.70;99.90;;;;;;4993324;28;20256;-72
2022/09/20 08:22:05;;;;;;;2.43;1.37;;;15.50;99.90;;;;;;4993369;28;20432;-71
2022/09/20 08:24:31;;;;;;;3.53;1.33;;;15.30;99.90;;;;;;4993473;28;20424;-72
2022/09/20 08:26:58;;;;;;;2.33;1.00;;;16.20;99.90;;;;;;4984399;28;20871;-72
2022/09/20 08:29:24;;;;;;;1.40;0.97;;;17.40;99.90;;;;;;4993361;28;20760;-72
2022/09/20 08:31:50;;;;;;;3.23;1.13;;;16.80;99.90;;;;;;4993793;28;20490;-72
2022/09/20 08:34:17;;;;;;;2.33;1.13;;;16.60;99.90;;;;;;4992007;28;20535;-72
2022/09/20 08:36:45;;;;;;;1.67;0.90;;;16.50;99.90;;;;;;4993547;28;20434;-71
2022/09/20 08:39:12;;;;;;;1.60;1.00;;;18.10;99.90;;;;;;4992940;28;20451;-69
2022/09/20 08:41:56;;;;;;;12.83;8.47;;;16.40;99.90;;;;;;4993365;28;20413;-70
2022/09/20 08:44:31;;;;;;;22.13;15.07;;;16.30;99.90;;;;;;4992997;28;20424;-71
2022/09/20 08:47:21;;;;;;;13.50;10.40;;;16.30;99.90;;;;;;4992985;28;20414;-70
2022/09/20 08:49:47;;;;;;;13.37;8.80;;;16.20;99.90;;;;;;4992903;28;20528;-70
2022/09/20 08:52:18;;;;;;;3.97;2.03;;;17.30;99.90;;;;;;4992688;28;20499;-70
2022/09/20 08:54:44;;;;;;;5.40;4.23;;;17.40;99.90;;;;;;4992933;28;20476;-71
2022/09/20 08:57:14;;;;;;;1.27;0.90;;;16.60;99.90;;;;;;4992707;28;20924;-71
2022/09/20 08:59:41;;;;;;;3.00;1.27;;;17.30;99.90;;;;;;4992731;28;20208;-69
2022/09/20 09:02:21;;;;;;;3.87;1.70;;;17.10;99.90;;;;;;4992523;28;20403;-70
2022/09/20 09:04:48;;;;;;;8.97;3.80;;;17.10;99.90;;;;;;4992456;28;20447;-70
2022/09/20 09:07:19;;;;;;;1.27;0.97;;;17.30;99.90;;;;;;4992772;28;20470;-70
2022/09/20 09:09:46;;;;;;;5.00;4.23;;;16.20;99.90;;;;;;4992582;28;20479;-70
2022/09/20 09:12:38;;;;;;;3.20;1.93;;;17.50;99.90;;;;;;4992418;28;20407;-70
2022/09/20 09:15:22;;;;;;;1.70;1.30;;;17.50;99.90;;;;;;4988720;28;20592;-72
2022/09/20 09:17:47;;;;;;;2.90;1.00;;;17.50;99.90;;;;;;4992482;28;20407;-70
2022/09/20 09:20:13;;;;;;;1.70;1.07;;;16.60;99.90;;;;;;4992110;28;20521;-70
2022/09/20 09:22:46;;;;;;;2.73;0.90;;;17.10;99.90;;;;;;4992196;28;20540;-69
2022/09/20 09:25:31;;;;;;;1.63;0.90;;;16.50;99.90;;;;;;4991992;28;20187;-70
2022/09/20 09:28:06;;;;;;;1.53;0.90;;;15.80;99.90;;;;;;4992289;28;20421;-70
2022/09/20 09:30:40;;;;;;;1.03;0.93;;;16.30;99.90;;;;;;4992173;28;20444;-69
2022/09/20 09:33:17;;;;;;;1.30;1.00;;;16.90;99.90;;;;;;4992049;28;20485;-69
2022/09/20 09:35:51;;;;;;;1.67;1.43;;;17.90;99.90;;;;;;4991947;28;20402;-70
2022/09/20 09:38:20;;;;;;;2.13;1.83;;;18.10;99.90;;;;;;4992206;28;20405;-69
2022/09/20 09:40:58;;;;;;;1.93;1.73;;;19.00;99.90;;;;;;4992297;28;20451;-70
2022/09/20 09:43:30;;;;;;;2.97;1.70;;;17.70;99.90;;;;;;4991983;28;20438;-70
2022/09/20 09:46:16;;;;;;;2.57;1.27;;;17.50;99.90;;;;;;4991854;28;20438;-71
2022/09/20 09:48:48;;;;;;;3.40;1.07;;;16.40;99.90;;;;;;4992053;28;20415;-70
2022/09/20 09:51:15;;;;;;;5.57;2.30;;;16.50;99.90;;;;;;4991952;28;20498;-71
2022/09/20 09:53:42;;;;;;;2.13;1.43;;;16.50;99.90;;;;;;4991904;28;20436;-71
2022/09/20 09:56:23;;;;;;;1.40;1.27;;;16.30;99.90;;;;;;4991730;28;20414;-70
2022/09/20 09:58:58;;;;;;;1.23;0.90;;;16.60;99.90;;;;;;4992368;28;20411;-70
2022/09/20 10:01:54;;;;;;;2.80;1.50;;;15.90;99.90;;;;;;4991774;28;20988;-70
2022/09/20 10:04:42;;;;;;;2.70;2.20;;;16.20;99.90;;;;;;4993116;28;20469;-73
2022/09/20 10:07:18;;;;;;;1.63;1.53;;;15.70;99.90;;;;;;4995635;28;20409;-72
2022/09/20 10:09:55;;;;;;;4.57;1.50;;;15.70;99.90;;;;;;5032925;22;20484;-81
2022/09/20 10:12:31;;;;;;;1.60;1.50;;;16.20;99.90;;;;;;5013029;28;20457;-81
2022/09/20 10:15:06;;;;;;;4.23;2.23;;;16.50;99.90;;;;;;5021080;28;20397;-80
2022/09/20 10:17:50;;;;;;;4.00;2.23;;;16.90;99.90;;;;;;5021253;28;20402;-80
2022/09/20 10:20:37;;;;;;;1.50;1.40;;;16.30;99.90;;;;;;5022898;28;20454;-80
2022/09/20 10:23:14;;;;;;;1.40;1.30;;;15.90;99.90;;;;;;5021150;28;20757;-80
2022/09/20 10:25:58;;;;;;;2.70;1.23;;;16.30;99.90;;;;;;5021494;28;20405;-80
2022/09/20 10:28:49;;;;;;;2.90;1.70;;;16.40;99.90;;;;;;5017843;28;20437;-77
2022/09/20 10:31:44;;;;;;;2.10;1.00;;;16.70;99.90;;;;;;5026461;28;20411;-79
2022/09/20 10:34:36;;;;;;;2.43;1.50;;;16.80;99.90;;;;;;5037711;28;20767;-79
2022/09/20 10:37:04;;;;;;;2.53;1.77;;;17.00;99.90;;;;;;5039830;28;20402;-79
2022/09/20 10:39:33;;;;;;;2.13;2.03;;;16.70;99.90;;;;;;5039471;28;20939;-79
2022/09/20 10:45:21;;;;;;;3.10;1.57;;;16.10;99.90;;;;;;5049680;28;20410;-80
2022/09/20 10:48:20;;;;;;;1.53;1.33;;;15.30;99.90;;;;;;5045307;28;20483;-79
2022/09/20 10:51:05;;;;;;;3.80;1.70;;;15.40;99.90;;;;;;5022516;28;20421;-80
2022/09/20 10:53:40;;;;;;;2.27;1.57;;;14.70;99.90;;;;;;5003526;28;20502;-80
2022/09/20 10:56:28;;;;;;;2.43;1.53;;;14.70;99.90;;;;;;5019815;28;20933;-80
2022/09/20 10:59:37;;;;;;;1.70;1.60;;;14.80;99.90;;;;;;5020249;28;20416;-80
2022/09/20 11:02:31;;;;;;;2.70;2.10;;;15.10;99.90;;;;;;4975710;28;20482;-79
2022/09/20 11:05:25;;;;;;;2.50;1.63;;;14.70;99.90;;;;;;5003058;28;20431;-79
2022/09/20 11:07:58;;;;;;;9.13;2.70;;;14.50;99.90;;;;;;5019066;28;20419;-80
2022/09/20 11:10:35;;;;;;;1.97;1.87;;;14.00;99.90;;;;;;5018907;28;20535;-80
2022/09/20 11:13:14;;;;;;;4.27;1.70;;;13.80;99.90;;;;;;5017770;28;20415;-79
2022/09/20 11:15:50;;;;;;;1.30;0.90;;;13.50;99.90;;;;;;5014473;28;20415;-79
2022/09/20 11:18:27;;;;;;;1.30;1.00;;;13.20;99.90;;;;;;5016210;28;20480;-81
2022/09/20 11:21:06;;;;;;;1.77;1.17;;;12.80;99.90;;;;;;5019717;28;20458;-79
2022/09/20 11:24:22;;;;;;;2.73;1.00;;;12.50;99.90;;;;;;5022732;28;20402;-81
2022/09/20 11:26:52;;;;;;;1.13;1.03;;;12.40;99.90;;;;;;5021338;28;20463;-80
2022/09/20 11:29:46;;;;;;;1.00;0.90;;;12.20;99.90;;;;;;5018204;28;21159;-82
2022/09/20 11:32:19;;;;;;;1.00;0.90;;;12.10;99.90;;;;;;5022113;28;20411;-82
2022/09/20 11:34:54;;;;;;;1.83;0.90;;;12.00;99.90;;;;;;5022958;28;20415;-79
2022/09/20 11:37:23;;;;;;;1.37;1.00;;;12.00;99.90;;;;;;4996400;28;20921;-81
2022/09/20 11:39:59;;;;;;;1.53;1.03;;;11.90;99.90;;;;;;5024008;28;20459;-79
2022/09/20 11:42:30;;;;;;;2.17;1.30;;;11.90;99.90;;;;;;5015429;28;20406;-80
2022/09/20 11:44:56;;;;;;;1.30;1.10;;;12.10;99.90;;;;;;5022091;28;20410;-80
2022/09/20 11:47:27;;;;;;;4.40;1.40;;;12.20;99.90;;;;;;5022417;28;20407;-80
2022/09/20 11:50:31;;;;;;;2.40;1.80;;;12.30;99.90;;;;;;5032260;28;20216;-79
2022/09/20 11:53:36;;;;;;;1.20;1.10;;;12.50;99.90;;;;;;5019118;28;20434;-80
2022/09/20 11:56:25;;;;;;;1.70;1.10;;;12.50;99.90;;;;;;5027191;28;20544;-79
2022/09/20 11:58:54;;;;;;;2.77;1.43;;;12.70;99.90;;;;;;5026325;28;20824;-79
2022/09/20 12:01:41;;;;;;;2.53;2.33;;;12.90;99.90;;;;;;5027395;28;20451;-80
2022/09/20 12:04:28;;;;;;;2.30;1.50;;;13.00;99.90;;;;;;5022862;28;20403;-80
2022/09/20 12:07:14;;;;;;;3.00;1.77;;;13.10;99.90;;;;;;5023494;28;20510;-80
2022/09/20 12:09:44;;;;;;;1.93;1.67;;;13.10;99.90;;;;;;5022202;28;20451;-80
2022/09/20 12:12:27;;;;;;;2.33;2.10;;;13.30;99.90;;;;;;5028361;28;20411;-80
2022/09/20 12:14:56;;;;;;;2.07;1.93;;;13.50;99.90;;;;;;5026442;28;20407;-79
2022/09/20 12:17:46;;;;;;;4.07;2.57;;;13.70;99.90;;;;;;5030299;28;20411;-80
2022/09/20 12:20:34;;;;;;;3.23;2.93;;;13.90;99.90;;;;;;5030936;28;20459;-80
2022/09/20 12:23:37;;;;;;;3.63;3.33;;;14.10;99.90;;;;;;5031235;28;20960;-79
2022/09/20 12:26:05;;;;;;;4.63;3.00;;;14.10;99.90;;;;;;5022102;28;20881;-79
2022/09/20 12:28:42;;;;;;;3.83;2.40;;;14.00;99.90;;;;;;5024833;28;20408;-79
2022/09/20 12:31:17;;;;;;;4.10;3.00;;;14.10;99.90;;;;;;5020348;28;20391;-79
2022/09/20 12:34:13;;;;;;;4.23;2.40;;;14.10;99.90;;;;;;5018135;28;20413;-80
2022/09/20 12:36:42;;;;;;;3.30;2.40;;;14.10;99.90;;;;;;4996632;28;20411;-81
2022/09/20 12:39:10;;;;;;;2.63;2.40;;;13.90;99.90;;;;;;5020036;28;20826;-82
2022/09/20 12:41:56;;;;;;;3.03;1.70;;;14.00;99.90;;;;;;5018352;28;20770;-79
2022/09/20 12:44:36;;;;;;;1.37;1.20;;;14.10;99.90;;;;;;5017598;28;20399;-80
2022/09/20 12:47:10;;;;;;;1.30;1.20;;;14.00;99.90;;;;;;5016590;28;20395;-79
2022/09/20 12:52:49;;;;;;;1.97;1.20;;;13.50;99.90;;;;;;5017576;28;20398;-79
2022/09/20 12:55:40;;;;;;;2.47;1.50;;;13.70;99.90;;;;;;5018261;28;20521;-79
2022/09/20 12:58:14;;;;;;;3.07;1.77;;;14.00;99.90;;;;;;5017122;28;20932;-78
2022/09/20 13:00:48;;;;;;;1.20;0.97;;;13.90;99.90;;;;;;5017030;28;20458;-79
2022/09/20 13:03:14;;;;;;;1.10;1.00;;;13.80;99.90;;;;;;5017449;28;20411;-79
2022/09/20 13:05:45;;;;;;;2.07;1.30;;;13.90;99.90;;;;;;5017257;28;20906;-80
2022/09/20 13:08:24;;;;;;;0.83;0.80;;;14.00;99.90;;;;;;5018214;28;20214;-79
2022/09/20 13:11:00;;;;;;;0.83;0.80;;;13.60;99.90;;;;;;5019032;28;20475;-80
2022/09/20 13:13:44;;;;;;;1.00;0.70;;;13.30;99.90;;;;;;5019954;28;20889;-80
2022/09/20 13:16:38;;;;;;;1.73;1.00;;;13.10;99.90;;;;;;5018343;28;20426;-79
2022/09/20 13:19:30;;;;;;;1.33;0.70;;;12.80;99.90;;;;;;5016927;28;20430;-80
2022/09/20 13:21:59;;;;;;;1.03;0.80;;;13.20;99.90;;;;;;5017874;28;20407;-79
2022/09/20 13:24:30;;;;;;;1.37;0.90;;;13.30;99.90;;;;;;4999180;28;20426;-79
2022/09/20 13:27:01;;;;;;;1.13;0.70;;;13.40;99.90;;;;;;5015790;28;20439;-80
2022/09/20 13:29:38;;;;;;;1.43;0.80;;;13.20;99.90;;;;;;5022637;28;20458;-80
2022/09/20 13:32:29;;;;;;;1.83;0.97;;;13.40;99.90;;;;;;5015910;28;20414;-79
2022/09/20 13:35:17;;;;;;;1.10;0.90;;;13.10;99.90;;;;;;4978522;28;20423;-80
2022/09/20 13:37:53;;;;;;;0.80;0.80;;;13.20;99.90;;;;;;4998775;28;20435;-80
2022/09/20 13:40:32;;;;;;;0.83;0.80;;;13.50;99.90;;;;;;5015074;28;20860;-80
2022/09/20 13:43:01;;;;;;;0.67;0.67;;;13.40;99.90;;;;;;5016026;28;20495;-81
2022/09/20 13:45:27;;;;;;;1.33;0.70;;;13.40;99.90;;;;;;5017565;28;20402;-80
2022/09/20 13:47:55;;;;;;;0.80;0.80;;;13.70;99.90;;;;;;5017050;28;20407;-81
2022/09/20 13:50:25;;;;;;;1.10;0.90;;;13.70;99.90;;;;;;4999131;28;20530;-80
2022/09/20 13:53:02;;;;;;;0.70;0.70;;;13.80;99.90;;;;;;5018348;28;20743;-80
2022/09/20 13:55:34;;;;;;;1.37;1.00;;;13.90;99.90;;;;;;5018513;28;20473;-80
2022/09/20 13:58:14;;;;;;;1.43;1.33;;;14.10;99.90;;;;;;5017827;28;20411;-79